sensor_id;sensor_type;location;lat;lon;timestamp;temperature;humidity
11043;DHT22;5574;48.786;10.120;2023-11-21T00:01:45;8.50;99.90
11043;DHT22;5574;48.786;10.120;2023-11-21T00:04:14;8.50;99.90
11043;DHT22;5574;48.786;10.120;2023-11-21T00:06:41;8.40;99.90
11043;DHT22;5574;48.786;10.120;2023-11-21T00:09:07;8.40;99.90
11043;DHT22;5574;48.786;10.120;2023-11-21T00:11:35;8.40;99.90
11043;DHT22;5574;48.786;10.120;2023-11-21T00:14:03;8.40;99.90
11043;DHT22;5574;48.786;10.120;2023-11-21T00:16:30;8.50;99.90
11043;DHT22;5574;48.786;10.120;2023-11-21T00:18:57;8.40;99.90
11043;DHT22;5574;48.786;10.120;2023-11-21T00:21:25;8.50;99.90
11043;DHT22;5574;48.786;10.120;2023-11-21T00:23:51;8.40;99.90
11043;DHT22;5574;48.786;10.120;2023-11-21T00:26:18;8.40;99.90
11043;DHT22;5574;48.786;10.120;2023-11-21T00:28:45;8.30;99.90
11043;DHT22;5574;48.786;10.120;2023-11-21T00:31:12;8.30;99.90
11043;DHT22;5574;48.786;10.120;2023-11-21T00:33:39;8.30;99.90
11043;DHT22;5574;48.786;10.120;2023-11-21T00:36:06;8.30;99.90
11043;DHT22;5574;48.786;10.120;2023-11-21T00:38:36;8.30;99.90
11043;DHT22;5574;48.786;10.120;2023-11-21T00:41:05;8.30;99.90
11043;DHT22;5574;48.786;10.120;2023-11-21T00:43:32;8.30;99.90
11043;DHT22;5574;48.786;10.120;2023-11-21T00:45:59;8.30;99.90
11043;DHT22;5574;48.786;10.120;2023-11-21T00:48:25;8.30;99.90
11043;DHT22;5574;48.786;10.120;2023-11-21T00:50:52;8.30;99.90
11043;DHT22;5574;48.786;10.120;2023-11-21T00:53:19;8.30;99.90
11043;DHT22;5574;48.786;10.120;2023-11-21T00:55:47;8.30;99.90
11043;DHT22;5574;48.786;10.120;2023-11-21T00:58:13;8.30;99.90
11043;DHT22;5574;48.786;10.120;2023-11-21T01:00:40;8.30;99.90
11043;DHT22;5574;48.786;10.120;2023-11-21T01:03:07;8.30;99.90
11043;DHT22;5574;48.786;10.120;2023-11-21T01:05:34;8.30;99.90
11043;DHT22;5574;48.786;10.120;2023-11-21T01:08:01;8.20;99.90
11043;DHT22;5574;48.786;10.120;2023-11-21T01:10:27;8.20;99.90
11043;DHT22;5574;48.786;10.120;2023-11-21T01:12:55;8.20;99.90
11043;DHT22;5574;48.786;10.120;2023-11-21T01:15:23;8.10;99.90
11043;DHT22;5574;48.786;10.120;2023-11-21T01:17:51;8.10;99.90
11043;DHT22;5574;48.786;10.120;2023-11-21T01:20:18;8.10;99.90
11043;DHT22;5574;48.786;10.120;2023-11-21T01:22:44;8.00;99.90
11043;DHT22;5574;48.786;10.120;2023-11-21T01:25:14;8.00;99.90
11043;DHT22;5574;48.786;10.120;2023-11-21T01:27:41;8.00;99.90
11043;DHT22;5574;48.786;10.120;2023-11-21T01:30:10;8.00;99.90
11043;DHT22;5574;48.786;10.120;2023-11-21T01:32:37;8.00;99.90
11043;DHT22;5574;48.786;10.120;2023-11-21T01:35:04;8.00;99.90
11043;DHT22;5574;48.786;10.120;2023-11-21T01:37:32;8.00;99.90
11043;DHT22;5574;48.786;10.120;2023-11-21T01:39:58;8.00;99.90
11043;DHT22;5574;48.786;10.120;2023-11-21T01:42:26;8.00;99.90
11043;DHT22;5574;48.786;10.120;2023-11-21T01:44:54;8.00;99.90
11043;DHT22;5574;48.786;10.120;2023-11-21T01:47:22;8.10;99.90
11043;DHT22;5574;48.786;10.120;2023-11-21T01:49:49;8.00;99.90
11043;DHT22;5574;48.786;10.120;2023-11-21T01:52:16;8.10;99.90
11043;DHT22;5574;48.786;10.120;2023-11-21T01:54:43;8.10;99.90
11043;DHT22;5574;48.786;10.120;2023-11-21T01:57:10;8.10;99.90
11043;DHT22;5574;48.786;10.120;2023-11-21T01:59:37;8.10;99.90
11043;DHT22;5574;48.786;10.120;2023-11-21T02:02:05;8.10;99.90
11043;DHT22;5574;48.786;10.120;2023-11-21T02:04:33;8.10;99.90
11043;DHT22;5574;48.786;10.120;2023-11-21T02:07:00;8.20;99.90
11043;DHT22;5574;48.786;10.120;2023-11-21T02:09:28;8.10;99.90
11043;DHT22;5574;48.786;10.120;2023-11-21T02:11:55;8.10;99.90
11043;DHT22;5574;48.786;10.120;2023-11-21T02:14:24;8.10;99.90
11043;DHT22;5574;48.786;10.120;2023-11-21T02:16:52;8.10;99.90
11043;DHT22;5574;48.786;10.120;2023-11-21T02:19:21;8.10;99.90
11043;DHT22;5574;48.786;10.120;2023-11-21T02:21:51;8.10;99.90
11043;DHT22;5574;48.786;10.120;2023-11-21T02:24:20;8.20;99.90
11043;DHT22;5574;48.786;10.120;2023-11-21T02:26:47;8.10;99.90
11043;DHT22;5574;48.786;10.120;2023-11-21T02:29:14;8.10;99.90
11043;DHT22;5574;48.786;10.120;2023-11-21T02:31:43;8.20;99.90
11043;DHT22;5574;48.786;10.120;2023-11-21T02:34:13;8.20;99.90
11043;DHT22;5574;48.786;10.120;2023-11-21T02:36:40;8.20;99.90
11043;DHT22;5574;48.786;10.120;2023-11-21T02:39:08;8.20;99.90
11043;DHT22;5574;48.786;10.120;2023-11-21T02:41:36;8.30;99.90
11043;DHT22;5574;48.786;10.120;2023-11-21T02:44:03;8.30;99.90
11043;DHT22;5574;48.786;10.120;2023-11-21T02:46:31;8.30;99.90
11043;DHT22;5574;48.786;10.120;2023-11-21T02:48:59;8.30;99.90
11043;DHT22;5574;48.786;10.120;2023-11-21T02:51:26;8.30;99.90
11043;DHT22;5574;48.786;10.120;2023-11-21T02:53:52;8.30;99.90
11043;DHT22;5574;48.786;10.120;2023-11-21T02:56:19;8.20;99.90
11043;DHT22;5574;48.786;10.120;2023-11-21T02:58:47;8.30;99.90
11043;DHT22;5574;48.786;10.120;2023-11-21T03:01:14;8.30;99.90
11043;DHT22;5574;48.786;10.120;2023-11-21T03:03:41;8.30;99.90
11043;DHT22;5574;48.786;10.120;2023-11-21T03:06:08;8.30;99.90
11043;DHT22;5574;48.786;10.120;2023-11-21T03:08:35;8.30;99.90
11043;DHT22;5574;48.786;10.120;2023-11-21T03:11:02;8.30;99.90
11043;DHT22;5574;48.786;10.120;2023-11-21T03:13:29;8.30;99.90
11043;DHT22;5574;48.786;10.120;2023-11-21T03:15:57;8.30;99.90
11043;DHT22;5574;48.786;10.120;2023-11-21T03:18:24;8.30;99.90
11043;DHT22;5574;48.786;10.120;2023-11-21T03:20:52;8.30;99.90
11043;DHT22;5574;48.786;10.120;2023-11-21T03:23:19;8.30;99.90
11043;DHT22;5574;48.786;10.120;2023-11-21T03:25:45;8.30;99.90
11043;DHT22;5574;48.786;10.120;2023-11-21T03:28:12;8.20;99.90
11043;DHT22;5574;48.786;10.120;2023-11-21T03:30:39;8.20;99.90
11043;DHT22;5574;48.786;10.120;2023-11-21T03:33:07;8.20;99.90
11043;DHT22;5574;48.786;10.120;2023-11-21T03:35:34;8.20;99.90
11043;DHT22;5574;48.786;10.120;2023-11-21T03:38:01;8.20;99.90
11043;DHT22;5574;48.786;10.120;2023-11-21T03:40:27;8.10;99.90
11043;DHT22;5574;48.786;10.120;2023-11-21T03:42:54;8.10;99.90
11043;DHT22;5574;48.786;10.120;2023-11-21T03:45:21;8.10;99.90
11043;DHT22;5574;48.786;10.120;2023-11-21T03:47:47;8.20;99.90
11043;DHT22;5574;48.786;10.120;2023-11-21T03:50:15;8.10;99.90
11043;DHT22;5574;48.786;10.120;2023-11-21T03:52:42;8.20;99.90
11043;DHT22;5574;48.786;10.120;2023-11-21T03:55:10;8.20;99.90
11043;DHT22;5574;48.786;10.120;2023-11-21T03:57:36;8.20;99.90
11043;DHT22;5574;48.786;10.120;2023-11-21T04:00:04;8.20;99.90
11043;DHT22;5574;48.786;10.120;2023-11-21T04:02:34;8.20;99.90
11043;DHT22;5574;48.786;10.120;2023-11-21T04:05:00;8.20;99.90
11043;DHT22;5574;48.786;10.120;2023-11-21T04:07:28;8.20;99.90
11043;DHT22;5574;48.786;10.120;2023-11-21T04:09:55;8.20;99.90
11043;DHT22;5574;48.786;10.120;2023-11-21T04:12:22;8.20;99.90
11043;DHT22;5574;48.786;10.120;2023-11-21T04:14:48;8.20;99.90
11043;DHT22;5574;48.786;10.120;2023-11-21T04:17:17;8.20;99.90
11043;DHT22;5574;48.786;10.120;2023-11-21T04:19:44;8.30;99.90
11043;DHT22;5574;48.786;10.120;2023-11-21T04:22:11;8.30;99.90
11043;DHT22;5574;48.786;10.120;2023-11-21T04:24:39;8.30;99.90
11043;DHT22;5574;48.786;10.120;2023-11-21T04:27:06;8.30;99.90
11043;DHT22;5574;48.786;10.120;2023-11-21T04:29:33;8.30;99.90
11043;DHT22;5574;48.786;10.120;2023-11-21T04:32:00;8.30;99.90
11043;DHT22;5574;48.786;10.120;2023-11-21T04:34:28;8.30;99.90
11043;DHT22;5574;48.786;10.120;2023-11-21T04:36:56;8.30;99.90
11043;DHT22;5574;48.786;10.120;2023-11-21T04:39:23;8.30;99.90
11043;DHT22;5574;48.786;10.120;2023-11-21T04:41:51;8.30;99.90
11043;DHT22;5574;48.786;10.120;2023-11-21T04:44:18;8.40;99.90
11043;DHT22;5574;48.786;10.120;2023-11-21T04:46:44;8.30;99.90
11043;DHT22;5574;48.786;10.120;2023-11-21T04:49:11;8.30;99.90
11043;DHT22;5574;48.786;10.120;2023-11-21T04:51:38;8.30;99.90
11043;DHT22;5574;48.786;10.120;2023-11-21T04:54:05;8.30;99.90
11043;DHT22;5574;48.786;10.120;2023-11-21T04:56:32;8.30;99.90
11043;DHT22;5574;48.786;10.120;2023-11-21T04:59:00;8.20;99.90
11043;DHT22;5574;48.786;10.120;2023-11-21T05:01:26;8.30;99.90
11043;DHT22;5574;48.786;10.120;2023-11-21T05:03:53;8.20;99.90
11043;DHT22;5574;48.786;10.120;2023-11-21T05:06:20;8.30;99.90
11043;DHT22;5574;48.786;10.120;2023-11-21T05:08:47;8.30;99.90
11043;DHT22;5574;48.786;10.120;2023-11-21T05:11:23;8.30;99.90
11043;DHT22;5574;48.786;10.120;2023-11-21T05:13:50;8.30;99.90
11043;DHT22;5574;48.786;10.120;2023-11-21T05:16:18;8.30;99.90
11043;DHT22;5574;48.786;10.120;2023-11-21T05:18:45;8.30;99.90
11043;DHT22;5574;48.786;10.120;2023-11-21T05:21:12;8.30;99.90
11043;DHT22;5574;48.786;10.120;2023-11-21T05:23:38;8.30;99.90
11043;DHT22;5574;48.786;10.120;2023-11-21T05:26:05;8.30;99.90
11043;DHT22;5574;48.786;10.120;2023-11-21T05:28:32;8.30;99.90
11043;DHT22;5574;48.786;10.120;2023-11-21T05:30:59;8.30;99.90
11043;DHT22;5574;48.786;10.120;2023-11-21T05:33:28;8.30;99.90
11043;DHT22;5574;48.786;10.120;2023-11-21T05:35:55;8.30;99.90
11043;DHT22;5574;48.786;10.120;2023-11-21T05:38:21;8.30;99.90
11043;DHT22;5574;48.786;10.120;2023-11-21T05:40:48;8.30;99.90
11043;DHT22;5574;48.786;10.120;2023-11-21T05:43:15;8.30;99.90
11043;DHT22;5574;48.786;10.120;2023-11-21T05:45:42;8.30;99.90
11043;DHT22;5574;48.786;10.120;2023-11-21T05:48:08;8.20;99.90
11043;DHT22;5574;48.786;10.120;2023-11-21T05:50:36;8.20;99.90
11043;DHT22;5574;48.786;10.120;2023-11-21T05:53:04;8.20;99.90
11043;DHT22;5574;48.786;10.120;2023-11-21T05:55:30;8.30;99.90
11043;DHT22;5574;48.786;10.120;2023-11-21T05:57:57;8.30;99.90
11043;DHT22;5574;48.786;10.120;2023-11-21T06:00:24;8.30;99.90
11043;DHT22;5574;48.786;10.120;2023-11-21T06:02:53;8.20;99.90
11043;DHT22;5574;48.786;10.120;2023-11-21T06:05:20;8.20;99.90
11043;DHT22;5574;48.786;10.120;2023-11-21T06:07:50;8.20;99.90
11043;DHT22;5574;48.786;10.120;2023-11-21T06:10:19;8.20;99.90
11043;DHT22;5574;48.786;10.120;2023-11-21T06:12:46;8.20;99.90
11043;DHT22;5574;48.786;10.120;2023-11-21T06:15:12;8.20;99.90
11043;DHT22;5574;48.786;10.120;2023-11-21T06:17:40;8.30;99.90
11043;DHT22;5574;48.786;10.120;2023-11-21T06:20:08;8.30;99.90
11043;DHT22;5574;48.786;10.120;2023-11-21T06:22:39;8.30;99.90
11043;DHT22;5574;48.786;10.120;2023-11-21T06:25:09;8.30;99.90
11043;DHT22;5574;48.786;10.120;2023-11-21T06:27:38;8.30;99.90
11043;DHT22;5574;48.786;10.120;2023-11-21T06:30:06;8.30;99.90
11043;DHT22;5574;48.786;10.120;2023-11-21T06:32:34;8.30;99.90
11043;DHT22;5574;48.786;10.120;2023-11-21T06:35:01;8.30;99.90
11043;DHT22;5574;48.786;10.120;2023-11-21T06:37:30;8.30;99.90
11043;DHT22;5574;48.786;10.120;2023-11-21T06:39:57;8.30;99.90
11043;DHT22;5574;48.786;10.120;2023-11-21T06:42:26;8.30;99.90
11043;DHT22;5574;48.786;10.120;2023-11-21T06:44:53;8.30;99.90
11043;DHT22;5574;48.786;10.120;2023-11-21T06:47:22;8.30;99.90
11043;DHT22;5574;48.786;10.120;2023-11-21T06:49:50;8.20;99.90
11043;DHT22;5574;48.786;10.120;2023-11-21T06:52:18;8.20;99.90
11043;DHT22;5574;48.786;10.120;2023-11-21T06:54:45;8.20;99.90
11043;DHT22;5574;48.786;10.120;2023-11-21T06:57:13;8.30;99.90
11043;DHT22;5574;48.786;10.120;2023-11-21T06:59:41;8.30;99.90
11043;DHT22;5574;48.786;10.120;2023-11-21T07:02:08;8.30;99.90
11043;DHT22;5574;48.786;10.120;2023-11-21T07:04:35;8.30;99.90
11043;DHT22;5574;48.786;10.120;2023-11-21T07:07:02;8.30;99.90
11043;DHT22;5574;48.786;10.120;2023-11-21T07:09:29;8.40;99.90
11043;DHT22;5574;48.786;10.120;2023-11-21T07:11:56;8.40;99.90
11043;DHT22;5574;48.786;10.120;2023-11-21T07:14:23;8.30;99.90
11043;DHT22;5574;48.786;10.120;2023-11-21T07:16:51;8.30;99.90
11043;DHT22;5574;48.786;10.120;2023-11-21T07:19:18;8.30;99.90
11043;DHT22;5574;48.786;10.120;2023-11-21T07:21:45;8.30;99.90
11043;DHT22;5574;48.786;10.120;2023-11-21T07:24:12;8.30;99.90
11043;DHT22;5574;48.786;10.120;2023-11-21T07:26:38;8.30;99.90
11043;DHT22;5574;48.786;10.120;2023-11-21T07:29:05;8.30;99.90
11043;DHT22;5574;48.786;10.120;2023-11-21T07:31:32;8.30;99.90
11043;DHT22;5574;48.786;10.120;2023-11-21T07:34:01;8.40;99.90
11043;DHT22;5574;48.786;10.120;2023-11-21T07:36:28;8.50;99.90
11043;DHT22;5574;48.786;10.120;2023-11-21T07:38:55;8.60;99.90
11043;DHT22;5574;48.786;10.120;2023-11-21T07:41:21;8.60;99.90
11043;DHT22;5574;48.786;10.120;2023-11-21T07:43:48;8.60;99.90
11043;DHT22;5574;48.786;10.120;2023-11-21T07:46:15;8.60;99.90
11043;DHT22;5574;48.786;10.120;2023-11-21T07:48:42;8.60;99.90
11043;DHT22;5574;48.786;10.120;2023-11-21T07:51:10;8.60;99.90
11043;DHT22;5574;48.786;10.120;2023-11-21T07:53:38;8.60;99.90
11043;DHT22;5574;48.786;10.120;2023-11-21T07:56:06;8.60;99.90
11043;DHT22;5574;48.786;10.120;2023-11-21T07:58:34;8.60;99.90
11043;DHT22;5574;48.786;10.120;2023-11-21T08:01:01;8.60;99.90
11043;DHT22;5574;48.786;10.120;2023-11-21T08:03:28;8.60;99.90
11043;DHT22;5574;48.786;10.120;2023-11-21T08:05:55;8.70;99.90
11043;DHT22;5574;48.786;10.120;2023-11-21T08:08:24;8.60;99.90
11043;DHT22;5574;48.786;10.120;2023-11-21T08:10:51;8.70;99.90
11043;DHT22;5574;48.786;10.120;2023-11-21T08:13:22;8.60;99.90
11043;DHT22;5574;48.786;10.120;2023-11-21T08:15:48;8.60;99.90
11043;DHT22;5574;48.786;10.120;2023-11-21T08:18:15;8.60;99.90
11043;DHT22;5574;48.786;10.120;2023-11-21T08:20:43;8.70;99.90
11043;DHT22;5574;48.786;10.120;2023-11-21T08:23:13;8.70;99.90
11043;DHT22;5574;48.786;10.120;2023-11-21T08:25:43;8.60;99.90
11043;DHT22;5574;48.786;10.120;2023-11-21T08:28:10;8.60;99.90
11043;DHT22;5574;48.786;10.120;2023-11-21T08:30:36;8.50;99.90
11043;DHT22;5574;48.786;10.120;2023-11-21T08:33:03;8.50;99.90
11043;DHT22;5574;48.786;10.120;2023-11-21T08:35:30;8.60;99.90
11043;DHT22;5574;48.786;10.120;2023-11-21T08:37:57;8.60;99.90
11043;DHT22;5574;48.786;10.120;2023-11-21T08:40:24;8.70;99.90
11043;DHT22;5574;48.786;10.120;2023-11-21T08:42:52;8.70;99.90
11043;DHT22;5574;48.786;10.120;2023-11-21T08:45:19;8.70;99.90
11043;DHT22;5574;48.786;10.120;2023-11-21T08:47:46;8.70;99.90
11043;DHT22;5574;48.786;10.120;2023-11-21T08:50:13;8.80;99.90
11043;DHT22;5574;48.786;10.120;2023-11-21T08:52:40;8.80;99.90
11043;DHT22;5574;48.786;10.120;2023-11-21T08:55:08;8.80;99.90
11043;DHT22;5574;48.786;10.120;2023-11-21T08:57:38;8.90;99.90
11043;DHT22;5574;48.786;10.120;2023-11-21T09:00:08;8.90;99.90
11043;DHT22;5574;48.786;10.120;2023-11-21T09:02:37;9.00;99.90
11043;DHT22;5574;48.786;10.120;2023-11-21T09:05:05;9.00;99.90
11043;DHT22;5574;48.786;10.120;2023-11-21T09:07:32;9.00;99.90
11043;DHT22;5574;48.786;10.120;2023-11-21T09:09:58;9.00;99.90
11043;DHT22;5574;48.786;10.120;2023-11-21T09:12:25;9.00;99.90
11043;DHT22;5574;48.786;10.120;2023-11-21T09:14:52;9.10;99.90
11043;DHT22;5574;48.786;10.120;2023-11-21T09:17:20;9.10;99.90
11043;DHT22;5574;48.786;10.120;2023-11-21T09:19:46;9.20;99.90
11043;DHT22;5574;48.786;10.120;2023-11-21T09:22:16;9.10;99.90
11043;DHT22;5574;48.786;10.120;2023-11-21T09:24:43;9.20;99.90
11043;DHT22;5574;48.786;10.120;2023-11-21T09:27:10;9.20;99.90
11043;DHT22;5574;48.786;10.120;2023-11-21T09:29:38;9.20;99.90
11043;DHT22;5574;48.786;10.120;2023-11-21T09:32:05;9.30;99.90
11043;DHT22;5574;48.786;10.120;2023-11-21T09:34:35;9.30;99.90
11043;DHT22;5574;48.786;10.120;2023-11-21T09:37:04;9.30;99.90
11043;DHT22;5574;48.786;10.120;2023-11-21T09:39:31;9.30;99.90
11043;DHT22;5574;48.786;10.120;2023-11-21T09:42:04;9.40;99.90
11043;DHT22;5574;48.786;10.120;2023-11-21T09:44:40;9.40;99.90
11043;DHT22;5574;48.786;10.120;2023-11-21T09:47:10;9.40;99.90
11043;DHT22;5574;48.786;10.120;2023-11-21T09:49:43;9.40;99.90
11043;DHT22;5574;48.786;10.120;2023-11-21T09:52:18;9.40;99.90
11043;DHT22;5574;48.786;10.120;2023-11-21T09:54:46;9.40;99.90
11043;DHT22;5574;48.786;10.120;2023-11-21T09:57:14;9.40;99.90
11043;DHT22;5574;48.786;10.120;2023-11-21T09:59:42;9.40;99.90
11043;DHT22;5574;48.786;10.120;2023-11-21T10:02:09;9.40;99.90
11043;DHT22;5574;48.786;10.120;2023-11-21T10:04:39;9.40;99.90
11043;DHT22;5574;48.786;10.120;2023-11-21T10:07:07;9.30;99.90
11043;DHT22;5574;48.786;10.120;2023-11-21T10:09:35;9.40;99.90
11043;DHT22;5574;48.786;10.120;2023-11-21T10:12:04;9.30;99.90
11043;DHT22;5574;48.786;10.120;2023-11-21T10:14:34;9.30;99.90
11043;DHT22;5574;48.786;10.120;2023-11-21T10:17:01;9.30;99.90
11043;DHT22;5574;48.786;10.120;2023-11-21T10:19:28;9.30;99.90
11043;DHT22;5574;48.786;10.120;2023-11-21T10:21:55;9.30;99.90
11043;DHT22;5574;48.786;10.120;2023-11-21T10:24:24;9.30;99.90
11043;DHT22;5574;48.786;10.120;2023-11-21T10:26:51;9.40;99.90
11043;DHT22;5574;48.786;10.120;2023-11-21T10:29:19;9.50;99.90
11043;DHT22;5574;48.786;10.120;2023-11-21T10:31:49;9.60;99.90
11043;DHT22;5574;48.786;10.120;2023-11-21T10:34:17;9.70;99.90
11043;DHT22;5574;48.786;10.120;2023-11-21T10:36:44;9.80;99.90
11043;DHT22;5574;48.786;10.120;2023-11-21T10:39:14;9.80;99.90
11043;DHT22;5574;48.786;10.120;2023-11-21T10:41:45;10.00;99.90
11043;DHT22;5574;48.786;10.120;2023-11-21T10:44:14;10.50;99.90
11043;DHT22;5574;48.786;10.120;2023-11-21T10:46:46;10.60;99.90
11043;DHT22;5574;48.786;10.120;2023-11-21T10:49:16;10.60;99.90
11043;DHT22;5574;48.786;10.120;2023-11-21T10:51:44;10.60;99.90
11043;DHT22;5574;48.786;10.120;2023-11-21T10:54:10;10.60;99.90
11043;DHT22;5574;48.786;10.120;2023-11-21T10:56:39;10.70;99.90
11043;DHT22;5574;48.786;10.120;2023-11-21T10:59:10;10.80;99.90
11043;DHT22;5574;48.786;10.120;2023-11-21T11:01:40;11.00;99.90
11043;DHT22;5574;48.786;10.120;2023-11-21T11:04:09;10.90;99.90
11043;DHT22;5574;48.786;10.120;2023-11-21T11:06:41;10.80;99.90
11043;DHT22;5574;48.786;10.120;2023-11-21T11:09:08;10.60;99.90
11043;DHT22;5574;48.786;10.120;2023-11-21T11:11:38;10.30;99.90
11043;DHT22;5574;48.786;10.120;2023-11-21T11:14:07;10.20;99.90
11043;DHT22;5574;48.786;10.120;2023-11-21T11:16:36;10.10;99.90
11043;DHT22;5574;48.786;10.120;2023-11-21T11:19:03;10.00;99.90
11043;DHT22;5574;48.786;10.120;2023-11-21T11:21:37;9.90;99.90
11043;DHT22;5574;48.786;10.120;2023-11-21T11:24:33;9.90;99.90
11043;DHT22;5574;48.786;10.120;2023-11-21T11:27:14;10.00;99.90
11043;DHT22;5574;48.786;10.120;2023-11-21T11:29:51;10.10;99.90
11043;DHT22;5574;48.786;10.120;2023-11-21T11:32:47;10.10;99.90
11043;DHT22;5574;48.786;10.120;2023-11-21T11:35:26;10.20;99.90
11043;DHT22;5574;48.786;10.120;2023-11-21T11:37:56;10.20;99.90
11043;DHT22;5574;48.786;10.120;2023-11-21T11:40:27;10.20;99.90
11043;DHT22;5574;48.786;10.120;2023-11-21T11:43:06;10.20;99.90
11043;DHT22;5574;48.786;10.120;2023-11-21T11:45:34;10.20;99.90
11043;DHT22;5574;48.786;10.120;2023-11-21T11:48:10;10.20;99.90
11043;DHT22;5574;48.786;10.120;2023-11-21T11:50:42;10.20;99.90
11043;DHT22;5574;48.786;10.120;2023-11-21T11:53:33;10.20;99.90
11043;DHT22;5574;48.786;10.120;2023-11-21T11:56:22;10.20;99.90
11043;DHT22;5574;48.786;10.120;2023-11-21T11:58:51;10.10;99.90
11043;DHT22;5574;48.786;10.120;2023-11-21T12:01:19;10.10;99.90
11043;DHT22;5574;48.786;10.120;2023-11-21T12:06:51;10.50;99.90
11043;DHT22;5574;48.786;10.120;2023-11-21T12:09:19;10.80;99.90
11043;DHT22;5574;48.786;10.120;2023-11-21T12:11:47;10.80;99.90
11043;DHT22;5574;48.786;10.120;2023-11-21T12:14:14;10.70;99.90
11043;DHT22;5574;48.786;10.120;2023-11-21T12:16:41;10.70;99.90
11043;DHT22;5574;48.786;10.120;2023-11-21T12:19:09;10.60;99.90
11043;DHT22;5574;48.786;10.120;2023-11-21T12:21:36;10.50;99.90
11043;DHT22;5574;48.786;10.120;2023-11-21T12:24:05;10.40;99.90
11043;DHT22;5574;48.786;10.120;2023-11-21T12:26:34;10.40;99.90
11043;DHT22;5574;48.786;10.120;2023-11-21T12:29:01;10.30;99.90
11043;DHT22;5574;48.786;10.120;2023-11-21T12:31:30;10.30;99.90
11043;DHT22;5574;48.786;10.120;2023-11-21T12:33:57;10.30;99.90
11043;DHT22;5574;48.786;10.120;2023-11-21T12:36:24;10.30;99.90
11043;DHT22;5574;48.786;10.120;2023-11-21T12:38:51;10.20;99.90
11043;DHT22;5574;48.786;10.120;2023-11-21T12:41:19;10.20;99.90
11043;DHT22;5574;48.786;10.120;2023-11-21T12:43:47;10.20;99.90
11043;DHT22;5574;48.786;10.120;2023-11-21T12:46:14;10.10;99.90
11043;DHT22;5574;48.786;10.120;2023-11-21T12:48:41;10.10;99.90
11043;DHT22;5574;48.786;10.120;2023-11-21T12:51:09;10.00;99.90
11043;DHT22;5574;48.786;10.120;2023-11-21T12:53:37;10.00;99.90
11043;DHT22;5574;48.786;10.120;2023-11-21T12:56:07;10.00;99.90
11043;DHT22;5574;48.786;10.120;2023-11-21T12:58:36;10.00;99.90
11043;DHT22;5574;48.786;10.120;2023-11-21T13:01:05;10.00;99.90
11043;DHT22;5574;48.786;10.120;2023-11-21T13:03:37;10.00;99.90
11043;DHT22;5574;48.786;10.120;2023-11-21T13:06:05;9.90;99.90
11043;DHT22;5574;48.786;10.120;2023-11-21T13:08:33;9.90;99.90
11043;DHT22;5574;48.786;10.120;2023-11-21T13:11:00;9.90;99.90
11043;DHT22;5574;48.786;10.120;2023-11-21T13:13:29;9.90;99.90
11043;DHT22;5574;48.786;10.120;2023-11-21T13:15:59;9.90;99.90
11043;DHT22;5574;48.786;10.120;2023-11-21T13:18:29;9.80;99.90
11043;DHT22;5574;48.786;10.120;2023-11-21T13:20:57;9.80;99.90
11043;DHT22;5574;48.786;10.120;2023-11-21T13:23:25;9.80;99.90
11043;DHT22;5574;48.786;10.120;2023-11-21T13:25:53;9.80;99.90
11043;DHT22;5574;48.786;10.120;2023-11-21T13:28:20;9.90;99.90
11043;DHT22;5574;48.786;10.120;2023-11-21T13:30:49;9.90;99.90
11043;DHT22;5574;48.786;10.120;2023-11-21T13:33:19;9.90;99.90
11043;DHT22;5574;48.786;10.120;2023-11-21T13:35:52;9.90;99.90
11043;DHT22;5574;48.786;10.120;2023-11-21T13:38:21;9.80;99.90
11043;DHT22;5574;48.786;10.120;2023-11-21T13:40:49;9.60;99.90
11043;DHT22;5574;48.786;10.120;2023-11-21T13:43:19;9.40;99.90
11043;DHT22;5574;48.786;10.120;2023-11-21T13:45:48;9.30;99.90
11043;DHT22;5574;48.786;10.120;2023-11-21T13:48:16;9.10;99.90
11043;DHT22;5574;48.786;10.120;2023-11-21T13:50:52;9.10;99.90
11043;DHT22;5574;48.786;10.120;2023-11-21T13:53:24;8.90;99.90
11043;DHT22;5574;48.786;10.120;2023-11-21T13:55:51;8.90;99.90
11043;DHT22;5574;48.786;10.120;2023-11-21T13:58:20;8.80;99.90
11043;DHT22;5574;48.786;10.120;2023-11-21T14:00:50;8.80;99.90
11043;DHT22;5574;48.786;10.120;2023-11-21T14:03:22;8.80;99.90
11043;DHT22;5574;48.786;10.120;2023-11-21T14:05:59;8.80;99.90
11043;DHT22;5574;48.786;10.120;2023-11-21T14:08:26;8.80;99.90
11043;DHT22;5574;48.786;10.120;2023-11-21T14:10:54;8.80;99.90
11043;DHT22;5574;48.786;10.120;2023-11-21T14:13:23;8.80;99.90
11043;DHT22;5574;48.786;10.120;2023-11-21T14:15:50;8.80;99.90
11043;DHT22;5574;48.786;10.120;2023-11-21T14:18:23;8.80;99.90
11043;DHT22;5574;48.786;10.120;2023-11-21T14:20:58;8.70;99.90
11043;DHT22;5574;48.786;10.120;2023-11-21T14:23:25;8.60;99.90
11043;DHT22;5574;48.786;10.120;2023-11-21T14:25:52;8.70;99.90
11043;DHT22;5574;48.786;10.120;2023-11-21T14:28:19;8.70;99.90
11043;DHT22;5574;48.786;10.120;2023-11-21T14:30:46;8.70;99.90
11043;DHT22;5574;48.786;10.120;2023-11-21T14:33:12;8.70;99.90
11043;DHT22;5574;48.786;10.120;2023-11-21T14:35:41;8.70;99.90
11043;DHT22;5574;48.786;10.120;2023-11-21T14:38:09;8.70;99.90
11043;DHT22;5574;48.786;10.120;2023-11-21T14:40:36;8.70;99.90
11043;DHT22;5574;48.786;10.120;2023-11-21T14:43:03;8.60;99.90
11043;DHT22;5574;48.786;10.120;2023-11-21T14:45:32;8.60;99.90
11043;DHT22;5574;48.786;10.120;2023-11-21T14:47:59;8.60;99.90
11043;DHT22;5574;48.786;10.120;2023-11-21T14:50:33;8.50;99.90
11043;DHT22;5574;48.786;10.120;2023-11-21T14:53:17;8.50;99.90
11043;DHT22;5574;48.786;10.120;2023-11-21T14:56:00;8.50;99.90
11043;DHT22;5574;48.786;10.120;2023-11-21T14:58:29;8.50;99.90
11043;DHT22;5574;48.786;10.120;2023-11-21T15:00:55;8.50;99.90
11043;DHT22;5574;48.786;10.120;2023-11-21T15:03:27;8.50;99.90
11043;DHT22;5574;48.786;10.120;2023-11-21T15:06:15;8.60;99.90
11043;DHT22;5574;48.786;10.120;2023-11-21T15:08:57;8.50;99.90
11043;DHT22;5574;48.786;10.120;2023-11-21T15:11:41;8.60;99.90
11043;DHT22;5574;48.786;10.120;2023-11-21T15:14:08;8.60;99.90
11043;DHT22;5574;48.786;10.120;2023-11-21T15:16:36;8.60;99.90
11043;DHT22;5574;48.786;10.120;2023-11-21T15:19:05;8.60;99.90
11043;DHT22;5574;48.786;10.120;2023-11-21T15:21:32;8.60;99.90
11043;DHT22;5574;48.786;10.120;2023-11-21T15:24:00;8.60;99.90
11043;DHT22;5574;48.786;10.120;2023-11-21T15:26:27;8.60;99.90
11043;DHT22;5574;48.786;10.120;2023-11-21T15:28:53;8.60;99.90
11043;DHT22;5574;48.786;10.120;2023-11-21T15:31:20;8.60;99.90
11043;DHT22;5574;48.786;10.120;2023-11-21T15:33:50;8.60;99.90
11043;DHT22;5574;48.786;10.120;2023-11-21T15:36:17;8.60;99.90
11043;DHT22;5574;48.786;10.120;2023-11-21T15:38:44;8.60;99.90
11043;DHT22;5574;48.786;10.120;2023-11-21T15:41:12;8.60;99.90
11043;DHT22;5574;48.786;10.120;2023-11-21T15:43:39;8.60;99.90
11043;DHT22;5574;48.786;10.120;2023-11-21T15:46:06;8.60;99.90
11043;DHT22;5574;48.786;10.120;2023-11-21T15:48:33;8.60;99.90
11043;DHT22;5574;48.786;10.120;2023-11-21T15:51:01;8.60;99.90
11043;DHT22;5574;48.786;10.120;2023-11-21T15:53:28;8.50;99.90
11043;DHT22;5574;48.786;10.120;2023-11-21T15:55:54;8.50;99.90